Time;durP1;ratioP1;P1;durP2;ratioP2;P2;SDS_P1;SDS_P2;PMS_P1;PMS_P2;Temp;Humidity;BMP_temperature;BMP_pressure;BME280_temperature;BME280_humidity;BME280_pressure;Samples;Min_cycle;Max_cycle;Signal;HPM_P1;HPM_P2
2023/10/01 00:00:17;;;;;;;5.28;3.45;;;;;;;19.03;62.67;102371.13;5037682;28;20476;-55
2023/10/01 00:02:42;;;;;;;4.72;3.42;;;;;;;19.02;62.72;102366.72;5037700;28;20041;-55
2023/10/01 00:05:10;;;;;;;4.35;3.38;;;;;;;19.02;62.29;102373.94;5035534;28;20025;-56
2023/10/01 00:07:39;;;;;;;3.80;3.40;;;;;;;19.01;62.51;102375.78;5037874;28;20045;-55
2023/10/01 00:10:10;;;;;;;3.92;3.22;;;;;;;19.01;62.66;102373.06;5033080;28;20060;-55
2023/10/01 00:12:36;;;;;;;;;;;;;;;19.10;62.60;102374.22;5037909;28;20148;-55
2023/10/01 00:15:02;;;;;;;3.95;3.13;;;;;;;19.02;62.59;102374.81;5038312;28;19983;-55
2023/10/01 00:17:27;;;;;;;5.43;3.08;;;;;;;19.00;62.48;102374.06;5036098;28;20053;-55
2023/10/01 00:19:53;;;;;;;5.53;3.38;;;;;;;19.00;62.40;102376.78;5038552;28;20071;-55
2023/10/01 00:22:18;;;;;;;4.47;3.20;;;;;;;19.00;62.35;102370.47;5038204;28;20395;-55
2023/10/01 00:24:44;;;;;;;4.53;3.30;;;;;;;18.99;62.55;102374.19;5036249;28;20041;-55
2023/10/01 00:27:09;;;;;;;5.20;3.40;;;;;;;18.98;62.45;102378.69;5035769;28;20042;-55
2023/10/01 00:29:35;;;;;;;3.80;3.40;;;;;;;18.98;62.26;102377.84;5034899;28;20060;-55
2023/10/01 00:32:00;;;;;;;4.63;3.00;;;;;;;18.98;62.26;102380.53;5033022;28;20604;-55
2023/10/01 00:34:26;;;;;;;3.78;3.22;;;;;;;18.97;62.42;102368.03;5034410;28;20041;-55
2023/10/01 00:36:52;;;;;;;3.92;3.53;;;;;;;18.96;62.18;102367.16;5034573;28;20087;-55
2023/10/01 00:39:18;;;;;;;4.30;3.40;;;;;;;18.96;62.45;102367.16;5033044;28;20041;-55
2023/10/01 00:41:44;;;;;;;4.00;3.10;;;;;;;18.95;62.20;102362.75;5034020;28;20030;-55
2023/10/01 00:44:10;;;;;;;4.55;3.08;;;;;;;18.94;62.27;102367.28;5034475;28;20030;-55
2023/10/01 00:46:36;;;;;;;4.30;2.75;;;;;;;18.95;62.27;102357.34;5029753;28;20087;-55
2023/10/01 00:49:02;;;;;;;4.20;3.15;;;;;;;18.94;61.99;102367.28;5033603;28;20076;-55
2023/10/01 00:51:31;;;;;;;5.05;3.17;;;;;;;18.95;62.57;102351.94;5033617;28;20124;-55
2023/10/01 00:53:57;;;;;;;5.10;3.50;;;;;;;18.95;62.94;102347.41;5032858;28;20416;-55
2023/10/01 00:56:22;;;;;;;5.97;3.33;;;;;;;18.95;62.52;102346.56;5033302;28;20036;-55
2023/10/01 00:58:48;;;;;;;5.25;3.60;;;;;;;18.95;62.37;102341.16;5034785;28;20033;-55
2023/10/01 01:01:16;;;;;;;3.53;2.95;;;;;;;18.94;62.55;102339.41;5032688;28;20029;-55
2023/10/01 01:03:42;;;;;;;4.60;3.30;;;;;;;18.93;62.44;102333.16;5034282;28;20128;-55
2023/10/01 01:06:17;;;;;;;6.35;3.75;;;;;;;18.93;62.31;102332.31;5026892;28;20078;-55
2023/10/01 01:08:56;;;;;;;5.53;3.47;;;;;;;18.92;62.48;102330.59;5031191;28;20045;-55
2023/10/01 01:11:22;;;;;;;4.88;3.17;;;;;;;18.91;62.13;102324.31;5032477;28;20044;-55
2023/10/01 01:13:49;;;;;;;4.10;2.85;;;;;;;18.92;62.14;102325.19;5033670;28;20041;-55
2023/10/01 01:16:19;;;;;;;3.60;2.92;;;;;;;18.91;62.20;102323.47;5029481;28;20484;-55
2023/10/01 01:18:46;;;;;;;6.45;3.65;;;;;;;18.90;61.90;102319.91;5030331;28;20052;-55
2023/10/01 01:21:13;;;;;;;3.97;2.92;;;;;;;18.90;62.22;102322.59;5033374;28;20502;-56
2023/10/01 01:23:41;;;;;;;4.35;3.33;;;;;;;18.90;62.29;102321.75;5031075;28;20029;-55
2023/10/01 01:26:07;;;;;;;4.65;2.97;;;;;;;18.89;62.05;102326.28;5033251;28;20056;-55
2023/10/01 01:28:35;;;;;;;4.35;3.20;;;;;;;18.90;62.10;102330.69;5033299;28;20383;-55
2023/10/01 01:31:03;;;;;;;5.10;2.78;;;;;;;18.90;61.89;102332.53;5030739;28;20423;-55
2023/10/01 01:33:32;;;;;;;4.20;3.15;;;;;;;18.89;62.15;102325.44;5032655;28;20124;-55
2023/10/01 01:35:59;;;;;;;3.35;3.00;;;;;;;18.89;62.16;102325.44;5032859;28;20045;-55
2023/10/01 01:38:24;;;;;;;3.70;2.85;;;;;;;18.88;62.04;102321.00;5031471;28;20041;-55
2023/10/01 01:40:53;;;;;;;3.70;3.00;;;;;;;18.89;62.12;102320.03;5034025;28;20064;-55
2023/10/01 01:43:22;;;;;;;3.50;3.10;;;;;;;18.88;62.05;102323.69;5031946;28;20033;-55
2023/10/01 01:45:54;;;;;;;3.95;3.15;;;;;;;18.87;62.27;102319.28;5033474;28;20045;-55
2023/10/01 01:48:40;;;;;;;4.00;3.08;;;;;;;18.88;62.11;102321.00;5033547;28;20021;-55
2023/10/01 01:51:06;;;;;;;3.45;2.78;;;;;;;18.88;62.01;102315.59;5030818;28;20040;-55
2023/10/01 01:53:41;;;;;;;3.42;2.95;;;;;;;18.86;61.71;102314.84;5032861;28;20450;-55
2023/10/01 01:56:11;;;;;;;3.65;2.67;;;;;;;18.86;61.94;102302.22;5033349;28;20816;-55
2023/10/01 01:58:39;;;;;;;3.53;2.63;;;;;;;18.86;62.05;102306.75;5032072;28;20479;-55
2023/10/01 02:01:17;;;;;;;3.50;2.88;;;;;;;18.85;61.97;102303.22;5032506;28;20026;-55
2023/10/01 02:03:46;;;;;;;2.80;2.50;;;;;;;18.85;61.74;102307.72;5032891;28;20421;-55
2023/10/01 02:06:14;;;;;;;4.18;3.03;;;;;;;18.85;61.74;102315.81;5031576;28;20033;-55
2023/10/01 02:08:57;;;;;;;3.42;2.63;;;;;;;18.84;61.67;102300.63;5033342;28;20037;-55
2023/10/01 02:11:22;;;;;;;4.25;2.97;;;;;;;18.83;61.75;102297.06;5030915;28;20411;-55
2023/10/01 02:13:50;;;;;;;3.83;2.92;;;;;;;18.84;61.91;102300.63;5032012;28;20065;-55
2023/10/01 02:18:56;;;;;;;4.05;2.53;;;;;;;18.84;61.64;102287.13;5031553;28;20037;-55
2023/10/01 02:21:42;;;;;;;3.75;2.72;;;;;;;18.84;62.20;102289.84;5031861;28;20471;-55
2023/10/01 02:24:13;;;;;;;3.83;3.00;;;;;;;18.84;62.38;102292.53;5032286;28;20033;-55
2023/10/01 02:26:42;;;;;;;4.22;2.58;;;;;;;18.83;61.62;102282.69;5029363;28;20025;-55
2023/10/01 02:29:09;;;;;;;3.67;2.75;;;;;;;18.82;61.84;102281.00;5028591;28;20491;-55
2023/10/01 02:31:35;;;;;;;4.20;2.88;;;;;;;18.83;61.95;102282.69;5032811;28;20158;-55
2023/10/01 02:34:08;;;;;;;3.72;2.85;;;;;;;18.82;61.71;102286.38;5032095;28;20539;-55
2023/10/01 02:36:42;;;;;;;3.08;2.60;;;;;;;18.82;61.86;102281.00;5029094;28;20044;-55
2023/10/01 02:39:11;;;;;;;3.33;2.42;;;;;;;18.81;61.57;102281.94;5032243;28;20040;-55
2023/10/01 02:41:40;;;;;;;5.13;2.70;;;;;;;18.81;61.97;102290.06;5029496;28;20052;-55
2023/10/01 02:44:11;;;;;;;4.65;2.80;;;;;;;18.80;62.15;102291.91;5032140;28;20057;-55
2023/10/01 02:46:37;;;;;;;4.03;2.80;;;;;;;18.82;61.69;102302.59;5028907;28;20041;-55
2023/10/01 02:49:04;;;;;;;4.45;2.97;;;;;;;18.81;61.44;102295.44;5030581;28;20284;-55
2023/10/01 02:51:37;;;;;;;3.65;2.80;;;;;;;18.81;61.52;102306.25;5031231;28;20031;-55
2023/10/01 02:54:06;;;;;;;4.35;2.70;;;;;;;18.80;61.48;102299.09;5027904;28;20124;-55
2023/10/01 02:56:52;;;;;;;3.33;3.00;;;;;;;18.80;61.77;102294.59;5031655;28;20116;-55
2023/10/01 02:59:19;;;;;;;3.53;2.97;;;;;;;18.80;61.54;102304.50;5028871;28;20041;-55
2023/10/01 03:01:47;;;;;;;4.07;3.13;;;;;;;18.79;61.69;102298.25;5031234;28;20047;-55
2023/10/01 03:04:17;;;;;;;2.67;2.45;;;;;;;18.79;61.89;102289.28;5032718;28;20152;-55
2023/10/01 03:06:55;;;;;;;4.60;3.00;;;;;;;18.78;61.49;102290.28;5027714;28;20040;-55
2023/10/01 03:09:40;;;;;;;3.17;2.53;;;;;;;18.78;61.57;102284.88;5032368;28;20032;-55
2023/10/01 03:15:00;;;;;;;4.82;2.90;;;;;;;18.78;61.42;102290.28;5031927;28;20060;-55
2023/10/01 03:17:38;;;;;;;3.15;2.45;;;;;;;18.76;61.46;102279.59;5029180;28;20049;-55
2023/10/01 03:26:05;;;;;;;3.85;2.40;;;;;;;18.76;61.48;102284.97;5029159;28;20061;-55
2023/10/01 03:31:17;;;;;;;4.55;2.60;;;;;;;18.75;61.61;102284.13;5028374;28;20095;-55
2023/10/01 03:33:45;;;;;;;4.55;2.40;;;;;;;18.74;61.46;102287.78;5029809;28;20442;-55
2023/10/01 03:36:12;;;;;;;3.65;2.40;;;;;;;18.74;61.64;102282.41;5031327;28;20040;-56
2023/10/01 03:38:39;;;;;;;3.13;2.42;;;;;;;18.74;61.37;102279.69;5031217;28;20044;-55
2023/10/01 03:41:20;;;;;;;2.85;2.47;;;;;;;18.74;61.36;102277.00;5030966;28;20069;-55
2023/10/01 03:43:47;;;;;;;4.40;2.72;;;;;;;18.75;61.78;102275.16;5032313;28;20030;-55
2023/10/01 03:48:58;;;;;;;4.40;2.83;;;;;;;18.72;61.28;102281.66;5033244;28;20038;-55
2023/10/01 03:57:11;;;;;;;3.47;2.55;;;;;;;18.72;61.48;102276.25;5030866;28;20140;-55
2023/10/01 03:59:37;;;;;;;3.60;2.45;;;;;;;18.72;61.31;102283.50;5028319;28;20033;-55
2023/10/01 04:02:07;;;;;;;2.88;2.25;;;;;;;18.72;61.33;102280.81;5032037;28;20587;-55
2023/10/01 04:04:56;;;;;;;3.28;2.58;;;;;;;18.72;61.47;102286.19;5035096;28;20037;-55
2023/10/01 04:07:18;;;;;;;2.65;2.30;;;;;;;18.71;61.94;102282.63;5032247;28;20077;-55
2023/10/01 04:09:47;;;;;;;4.20;2.72;;;;;;;18.72;62.19;102275.41;5035458;28;20029;-55
2023/10/01 04:12:19;;;;;;;3.35;2.78;;;;;;;18.71;61.75;102279.06;5031218;28;20044;-55
2023/10/01 04:14:48;;;;;;;4.35;2.50;;;;;;;18.70;61.50;102280.91;5034721;28;20036;-55
2023/10/01 04:17:17;;;;;;;4.78;3.13;;;;;;;18.70;62.34;102280.91;5034133;28;20049;-55
2023/10/01 04:19:49;;;;;;;3.55;2.80;;;;;;;18.71;61.96;102271.81;5034235;28;20041;-55
2023/10/01 04:22:21;;;;;;;4.07;2.53;;;;;;;18.71;61.74;102268.28;5034144;28;20029;-55
2023/10/01 04:25:00;;;;;;;6.43;2.88;;;;;;;18.70;61.66;102280.91;5032445;28;20038;-55
2023/10/01 04:27:34;;;;;;;5.28;2.88;;;;;;;18.71;61.50;102276.38;5035559;28;20040;-55
2023/10/01 04:30:07;;;;;;;2.90;2.40;;;;;;;18.69;61.60;102271.09;5035137;28;20144;-55
2023/10/01 04:32:33;;;;;;;4.57;2.70;;;;;;;18.69;61.43;102271.09;5035242;28;20044;-55
2023/10/01 04:34:58;;;;;;;3.95;2.78;;;;;;;18.69;61.75;102271.09;5034861;28;20056;-55
2023/10/01 04:37:36;;;;;;;7.55;3.42;;;;;;;18.69;61.67;102270.22;5035337;28;20033;-55
2023/10/01 04:40:31;;;;;;;4.15;2.70;;;;;;;18.68;61.64;102263.97;5034523;28;20505;-55
2023/10/01 04:42:51;;;;;;;3.83;2.55;;;;;;;18.68;61.44;102269.38;5030721;28;20033;-55
2023/10/01 04:45:22;;;;;;;3.85;3.00;;;;;;;18.69;61.42;102270.22;5034492;28;20028;-55
2023/10/01 04:47:49;;;;;;;;;;;;;;;18.76;61.57;102272.34;5034598;28;20067;-55
2023/10/01 04:50:15;;;;;;;2.60;2.10;;;;;;;18.69;61.37;102265.69;5034134;28;19944;-55
2023/10/01 04:52:44;;;;;;;4.68;2.97;;;;;;;18.67;61.26;102273.03;5034191;28;20084;-55
2023/10/01 04:55:09;;;;;;;4.70;3.00;;;;;;;18.67;61.42;102269.50;5034150;28;20041;-55
2023/10/01 04:57:36;;;;;;;4.00;2.88;;;;;;;18.66;61.43;102276.72;5033639;28;20446;-55
2023/10/01 05:00:10;;;;;;;4.07;2.97;;;;;;;18.65;60.99;102277.69;5033781;28;20072;-55
2023/10/01 05:02:36;;;;;;;4.43;2.65;;;;;;;18.65;60.90;102275.00;5033694;28;20037;-55
2023/10/01 05:05:10;;;;;;;6.13;2.78;;;;;;;18.65;61.45;102275.00;5034859;28;20037;-55
2023/10/01 05:07:36;;;;;;;3.67;2.40;;;;;;;18.65;61.50;102277.69;5029766;28;20029;-55
2023/10/01 05:10:04;;;;;;;4.95;2.60;;;;;;;18.65;61.13;102276.84;5035088;28;20032;-55
2023/10/01 05:12:31;;;;;;;2.92;2.33;;;;;;;18.65;61.24;102263.34;5034770;28;20036;-55
2023/10/01 05:14:59;;;;;;;4.38;2.47;;;;;;;18.64;61.05;102272.41;5029944;28;20033;-55
2023/10/01 05:17:30;;;;;;;4.15;2.65;;;;;;;18.64;61.18;102267.00;5033666;28;20057;-55
2023/10/01 05:19:58;;;;;;;4.05;2.45;;;;;;;18.64;61.31;102264.31;5034189;28;20116;-55
2023/10/01 05:22:24;;;;;;;3.65;2.70;;;;;;;18.64;61.39;102275.09;5030009;28;20398;-55
2023/10/01 05:24:50;;;;;;;4.20;2.70;;;;;;;18.64;61.38;102288.59;5033492;28;20038;-55
2023/10/01 05:27:22;;;;;;;4.65;2.45;;;;;;;18.63;61.04;102289.59;5033675;28;20613;-55
2023/10/01 05:29:48;;;;;;;3.92;2.67;;;;;;;18.64;61.21;102285.91;5033495;28;20038;-55
2023/10/01 05:32:17;;;;;;;4.07;2.75;;;;;;;18.62;61.04;102283.34;5033217;28;20083;-55
2023/10/01 05:34:46;;;;;;;4.07;2.80;;;;;;;18.62;61.02;102286.03;5032996;28;20040;-55
2023/10/01 05:37:24;;;;;;;4.85;3.00;;;;;;;18.62;60.94;102286.03;5033252;28;20085;-55
2023/10/01 05:39:55;;;;;;;3.90;2.78;;;;;;;18.63;61.09;102292.28;5033288;28;20060;-55
2023/10/01 05:42:31;;;;;;;3.42;2.50;;;;;;;18.62;61.71;102302.22;5032602;28;20037;-55
2023/10/01 05:44:59;;;;;;;6.22;2.95;;;;;;;18.62;60.99;102313.00;5030113;28;20048;-55
2023/10/01 05:47:41;;;;;;;4.28;2.67;;;;;;;18.62;61.44;102302.22;5034241;28;20033;-55
2023/10/01 05:50:12;;;;;;;4.60;2.80;;;;;;;18.62;61.10;102298.63;5034169;28;20084;-55
2023/10/01 05:52:40;;;;;;;;;;;;;;;18.70;61.34;102297.09;5030670;28;20037;-55
2023/10/01 05:55:12;;;;;;;6.18;3.08;;;;;;;18.63;61.04;102281.50;5033525;28;19917;-55
2023/10/01 05:57:40;;;;;;;3.47;2.30;;;;;;;18.61;61.16;102281.59;5033588;28;20037;-55
2023/10/01 06:00:25;;;;;;;3.60;2.58;;;;;;;18.61;61.24;102281.59;5033819;28;20690;-55
2023/10/01 06:03:00;;;;;;;7.45;3.28;;;;;;;18.61;61.40;102288.84;5029299;28;20036;-55
2023/10/01 06:05:43;;;;;;;4.40;2.60;;;;;;;18.59;61.42;102280.84;5032851;28;20032;-55
2023/10/01 06:08:17;;;;;;;4.45;2.53;;;;;;;18.61;61.44;102288.84;5029325;28;20376;-55
2023/10/01 06:10:59;;;;;;;4.50;3.20;;;;;;;18.61;61.18;102294.25;5032626;28;20029;-55
2023/10/01 06:13:28;;;;;;;5.47;3.00;;;;;;;18.60;61.33;102289.81;5032620;28;20441;-55
2023/10/01 06:15:58;;;;;;;4.15;2.97;;;;;;;18.60;60.99;102297.91;5032134;28;20026;-55
2023/10/01 06:18:26;;;;;;;4.03;2.90;;;;;;;18.59;61.25;102288.94;5031968;28;20068;-55
2023/10/01 06:20:53;;;;;;;3.35;2.78;;;;;;;18.59;61.41;102291.66;5032322;28;20549;-55
2023/10/01 06:23:20;;;;;;;4.40;2.97;;;;;;;18.59;61.54;102291.66;5028323;28;20156;-55
2023/10/01 06:25:51;;;;;;;4.38;2.80;;;;;;;18.60;61.41;102304.19;5031296;28;20068;-55
2023/10/01 06:28:20;;;;;;;4.32;2.83;;;;;;;18.59;61.54;102291.66;5032950;28;20037;-55
2023/10/01 06:30:46;;;;;;;4.40;3.10;;;;;;;18.59;61.26;102294.34;5029066;28;20045;-55
2023/10/01 06:33:29;;;;;;;4.63;2.63;;;;;;;18.60;61.38;102297.91;5032753;28;20044;-55
2023/10/01 06:38:41;;;;;;;4.18;3.00;;;;;;;18.59;61.31;102299.75;5029458;28;20117;-55
2023/10/01 06:41:11;;;;;;;5.00;3.25;;;;;;;18.59;61.62;102288.94;5032251;28;20068;-55
2023/10/01 06:43:44;;;;;;;5.03;3.00;;;;;;;18.59;61.49;102288.94;5032797;28;20041;-55
2023/10/01 06:46:11;;;;;;;4.93;3.00;;;;;;;18.60;61.76;102279.91;5028035;28;20045;-57
2023/10/01 06:48:39;;;;;;;5.47;2.80;;;;;;;18.59;61.47;102286.25;5031899;28;20517;-56
2023/10/01 06:51:05;;;;;;;4.45;2.90;;;;;;;18.60;61.57;102285.28;5030909;28;20037;-56
2023/10/01 06:53:47;;;;;;;4.70;2.95;;;;;;;18.60;61.46;102281.72;5028717;28;20449;-56
2023/10/01 06:56:17;;;;;;;;;;;;;;;18.68;61.36;102276.63;5028288;28;20041;-56
2023/10/01 07:01:48;;;;;;;4.30;2.78;;;;;;;18.59;61.10;102280.00;5025622;28;20388;-56
2023/10/01 07:04:30;;;;;;;5.95;3.20;;;;;;;18.58;61.30;102281.81;5029208;28;20027;-57
2023/10/01 07:06:57;;;;;;;3.67;2.70;;;;;;;18.59;61.13;102285.41;5027811;28;20041;-57
2023/10/01 07:09:27;;;;;;;5.75;3.10;;;;;;;18.58;60.73;102289.06;5029140;28;20174;-57
2023/10/01 07:11:56;;;;;;;5.00;3.28;;;;;;;18.56;60.93;102275.69;5028996;28;20123;-56
2023/10/01 07:17:23;;;;;;;6.18;3.25;;;;;;;18.57;60.55;102288.22;5020648;28;20037;-56
2023/10/01 07:19:59;;;;;;;6.78;3.47;;;;;;;18.58;60.83;102283.66;5026609;28;20091;-57
2023/10/01 07:22:31;;;;;;;4.47;3.00;;;;;;;18.56;60.59;102281.97;5031407;28;20029;-56
2023/10/01 07:25:00;;;;;;;3.78;2.42;;;;;;;18.57;60.66;102299.00;5032070;28;20474;-56
2023/10/01 07:27:27;;;;;;;5.03;2.55;;;;;;;18.56;60.36;102295.44;5031488;28;20063;-56
2023/10/01 07:29:54;;;;;;;5.50;2.95;;;;;;;18.57;60.42;102299.00;5031145;28;20406;-56
2023/10/01 07:32:22;;;;;;;5.00;3.10;;;;;;;18.57;60.80;102307.09;5031057;28;20083;-56
2023/10/01 07:34:55;;;;;;;4.45;2.92;;;;;;;18.57;60.70;102299.00;5030960;28;20084;-57
2023/10/01 07:37:25;;;;;;;4.60;2.90;;;;;;;18.58;60.11;102298.00;5029874;28;20078;-56
2023/10/01 07:40:13;;;;;;;4.97;2.97;;;;;;;18.58;60.27;102295.31;5033607;28;20891;-57
2023/10/01 07:42:46;;;;;;;4.93;3.38;;;;;;;18.58;60.14;102295.31;5034452;28;20038;-56
2023/10/01 07:45:16;;;;;;;6.22;3.30;;;;;;;18.59;60.46;102301.59;5029338;28;20037;-57
2023/10/01 07:47:45;;;;;;;4.20;2.80;;;;;;;18.57;60.36;102309.78;5032894;28;20040;-57
2023/10/01 07:50:16;;;;;;;4.68;2.88;;;;;;;18.58;60.15;102310.63;5031499;28;20026;-56
2023/10/01 07:52:44;;;;;;;4.60;3.10;;;;;;;18.59;60.46;102317.78;5031408;28;20043;-56
2023/10/01 07:58:22;;;;;;;3.67;2.38;;;;;;;18.59;60.27;102310.53;5030888;28;20132;-56
2023/10/01 08:00:43;;;;;;;4.80;3.00;;;;;;;18.59;60.47;102307.84;5032694;28;20045;-56
2023/10/01 08:05:48;;;;;;;5.47;3.00;;;;;;;18.58;60.20;102306.09;5032194;28;20045;-57
2023/10/01 08:08:15;;;;;;;5.13;2.67;;;;;;;18.59;60.38;102306.97;5030872;28;20471;-56
2023/10/01 08:10:41;;;;;;;3.33;2.30;;;;;;;18.58;60.51;102305.25;5032476;28;20380;-56
2023/10/01 08:13:07;;;;;;;4.75;3.20;;;;;;;18.58;60.29;102310.63;5031724;28;20033;-57
2023/10/01 08:15:42;;;;;;;4.40;2.78;;;;;;;18.57;60.35;102307.09;5032574;28;20038;-57
2023/10/01 08:18:34;;;;;;;4.85;2.58;;;;;;;18.59;60.27;102310.53;5032412;28;20569;-56
2023/10/01 08:21:02;;;;;;;4.03;2.83;;;;;;;18.60;60.07;102319.47;5031515;28;20029;-56
2023/10/01 08:23:36;;;;;;;3.97;2.47;;;;;;;18.59;60.34;102318.63;5033021;28;20025;-56
2023/10/01 08:28:55;;;;;;;4.97;2.97;;;;;;;18.61;60.22;102324.75;5033333;28;20095;-56
2023/10/01 08:31:43;;;;;;;4.10;2.78;;;;;;;18.61;60.44;102318.50;5028977;28;20033;-56
2023/10/01 08:34:22;;;;;;;4.78;3.05;;;;;;;18.62;60.23;102328.31;5031361;28;20071;-56
2023/10/01 08:36:48;;;;;;;;;;;;;;;18.69;60.37;102325.03;5031852;28;20072;-56
2023/10/01 08:39:35;;;;;;;5.18;3.20;;;;;;;18.63;60.29;102330.91;5033683;28;20347;-56
2023/10/01 08:42:09;;;;;;;3.38;2.60;;;;;;;18.62;60.28;102321.09;5031730;28;20452;-56
2023/10/01 08:44:49;;;;;;;3.72;2.83;;;;;;;18.62;60.32;102329.19;5032684;28;20167;-56
2023/10/01 08:47:32;;;;;;;5.10;2.83;;;;;;;18.63;60.38;102321.97;5031727;28;20143;-56
2023/10/01 08:52:57;;;;;;;5.05;3.10;;;;;;;18.62;60.40;102321.09;5033560;28;20106;-56
2023/10/01 08:56:32;;;;;;;5.05;3.17;;;;;;;18.64;60.11;102329.94;5032439;28;20043;-56
2023/10/01 08:58:28;;;;;;;5.20;2.95;;;;;;;18.64;60.22;102329.94;5030709;28;20120;-56
2023/10/01 09:01:12;;;;;;;3.67;2.60;;;;;;;18.63;60.16;102325.50;5030706;28;20127;-56
2023/10/01 09:03:39;;;;;;;4.53;2.60;;;;;;;18.64;60.30;102315.56;5031141;28;20103;-56
2023/10/01 09:06:06;;;;;;;5.07;2.95;;;;;;;18.63;60.04;102322.81;5030929;28;20051;-56
2023/10/01 09:08:43;;;;;;;4.68;2.80;;;;;;;18.64;60.14;102327.25;5033254;28;20785;-56
2023/10/01 09:11:14;;;;;;;4.50;3.03;;;;;;;18.64;60.22;102320.97;5031298;28;20090;-56
2023/10/01 09:13:46;;;;;;;7.90;3.20;;;;;;;18.69;60.73;102324.19;5031977;28;20038;-55
2023/10/01 09:16:12;;;;;;;11.07;4.88;;;;;;;18.71;62.43;102317.69;5030833;28;20042;-55
2023/10/01 09:19:30;;;;;;;12.63;5.43;;;;;;;18.76;62.67;102314.66;5032134;28;20033;-55
2023/10/01 09:21:54;;;;;;;10.70;5.90;;;;;;;18.79;63.54;102313.56;5029842;28;20060;-54
2023/10/01 09:24:42;;;;;;;15.65;6.28;;;;;;;18.80;63.79;102316.19;5029922;28;20025;-55
2023/10/01 09:27:09;;;;;;;10.30;5.18;;;;;;;18.81;64.05;102309.81;5033820;28;20029;-55
2023/10/01 09:29:45;;;;;;;11.93;5.53;;;;;;;18.83;63.96;102304.28;5032422;28;20045;-54
2023/10/01 09:32:13;;;;;;;10.32;5.75;;;;;;;18.84;64.01;102298.78;5031409;28;20041;-54
2023/10/01 09:37:52;;;;;;;12.18;6.13;;;;;;;18.88;64.26;102297.56;5027497;28;20037;-54
2023/10/01 09:42:57;;;;;;;10.98;4.97;;;;;;;18.90;64.08;102297.44;5029081;28;20044;-54
2023/10/01 09:45:29;;;;;;;9.23;5.13;;;;;;;18.89;64.31;102295.75;5029566;28;20033;-54
2023/10/01 09:48:29;;;;;;;13.85;5.40;;;;;;;18.93;63.99;102300.78;5028746;28;20040;-53
2023/10/01 09:51:14;;;;;;;11.02;6.15;;;;;;;18.93;64.19;102295.38;5028657;28;20116;-54
2023/10/01 09:53:55;;;;;;;12.80;6.00;;;;;;;18.92;64.40;102290.97;5032151;28;20022;-54
2023/10/01 09:59:11;;;;;;;12.20;5.60;;;;;;;18.95;64.80;102298.81;5030489;28;20049;-54
2023/10/01 10:01:38;;;;;;;12.23;5.97;;;;;;;18.95;64.54;102293.44;5029496;28;20033;-54
2023/10/01 10:04:06;;;;;;;12.70;6.18;;;;;;;18.96;65.17;102296.97;5029859;28;20053;-53
2023/10/01 10:06:33;;;;;;;13.13;5.80;;;;;;;18.97;64.77;102296.00;5029095;28;20029;-54
2023/10/01 10:09:04;;;;;;;9.27;5.45;;;;;;;18.99;64.97;102299.44;5029129;28;20027;-54
2023/10/01 10:11:37;;;;;;;14.27;6.28;;;;;;;18.99;64.81;102299.44;5029232;28;20037;-56
2023/10/01 10:14:28;;;;;;;10.43;5.60;;;;;;;19.02;64.37;102292.94;5030922;28;20064;-54
2023/10/01 10:16:56;;;;;;;9.40;5.25;;;;;;;19.01;65.17;102292.09;5024422;28;20065;-55
2023/10/01 10:19:22;;;;;;;13.50;5.88;;;;;;;19.02;65.19;102288.44;5033275;28;20526;-55
2023/10/01 10:22:16;;;;;;;11.00;5.40;;;;;;;19.03;65.21;102287.44;5031169;28;20148;-54
2023/10/01 10:24:46;;;;;;;10.57;5.72;;;;;;;19.03;65.26;102284.75;5031990;28;20033;-55
2023/10/01 10:27:24;;;;;;;11.95;6.07;;;;;;;19.05;64.95;102290.88;5029943;28;20041;-55
2023/10/01 10:29:56;;;;;;;11.93;5.80;;;;;;;19.05;65.41;102277.38;5028373;28;20087;-55
2023/10/01 10:32:26;;;;;;;;;;;;;;;19.11;64.34;102285.03;5030058;28;20033;-54
2023/10/01 10:35:04;;;;;;;14.35;6.05;;;;;;;19.09;65.28;102278.00;5027761;28;19921;-55
2023/10/01 10:37:37;;;;;;;14.23;6.57;;;;;;;19.08;65.36;102277.16;5027986;28;20040;-54
2023/10/01 10:40:12;;;;;;;11.48;6.13;;;;;;;19.08;65.49;102273.59;5026846;28;20033;-55
2023/10/01 10:43:04;;;;;;;11.10;5.68;;;;;;;19.09;65.89;102278.00;5029389;28;20108;-55
2023/10/01 10:45:45;;;;;;;12.43;5.50;;;;;;;19.09;66.04;102273.47;5026107;28;20423;-55
2023/10/01 10:48:14;;;;;;;12.75;6.43;;;;;;;19.11;66.07;102274.22;5029281;28;20468;-55
2023/10/01 10:50:57;;;;;;;11.70;6.30;;;;;;;19.12;66.10;102275.09;5030114;28;20036;-55
2023/10/01 10:53:40;;;;;;;12.52;6.50;;;;;;;19.14;65.57;102268.56;5030488;28;20029;-55
2023/10/01 10:56:10;;;;;;;12.80;6.28;;;;;;;19.14;66.14;102265.88;5030737;28;20022;-55
2023/10/01 10:58:45;;;;;;;10.38;5.88;;;;;;;19.17;66.06;102274.72;5031987;28;20116;-55
2023/10/01 11:01:15;;;;;;;13.07;6.28;;;;;;;19.16;66.11;102278.41;5030321;28;20909;-55
2023/10/01 11:03:55;;;;;;;13.88;6.13;;;;;;;19.17;66.00;102263.91;5030544;28;20032;-55
2023/10/01 11:06:22;;;;;;;15.52;6.70;;;;;;;19.18;66.11;102276.44;5030282;28;20087;-55
2023/10/01 11:08:52;;;;;;;13.75;6.38;;;;;;;19.19;66.50;102262.81;5029790;28;20025;-55
2023/10/01 11:11:25;;;;;;;13.00;6.30;;;;;;;19.19;65.92;102261.94;5028374;28;20025;-55
2023/10/01 11:14:00;;;;;;;12.77;6.07;;;;;;;19.20;66.00;102269.09;5027648;28;20040;-55
2023/10/01 11:16:38;;;;;;;10.60;5.93;;;;;;;19.22;66.02;102267.13;5030358;28;20491;-55
2023/10/01 11:19:14;;;;;;;15.23;6.00;;;;;;;19.22;66.34;102259.03;5030020;28;20488;-55
2023/10/01 11:21:59;;;;;;;13.40;6.13;;;;;;;19.23;66.21;102256.22;5031139;28;20045;-55
2023/10/01 11:24:33;;;;;;;11.05;6.38;;;;;;;19.25;66.06;102243.44;5028445;28;20364;-55
2023/10/01 11:27:22;;;;;;;13.57;6.05;;;;;;;19.27;66.04;102243.31;5030270;28;20021;-55
2023/10/01 11:30:19;;;;;;;12.23;5.63;;;;;;;19.27;66.05;102244.19;5028061;28;20124;-55
2023/10/01 11:35:33;;;;;;;16.90;6.95;;;;;;;19.29;66.87;102241.38;5028735;28;20034;-55
2023/10/01 11:38:03;;;;;;;16.10;6.67;;;;;;;19.29;66.47;102236.81;5032061;28;20083;-55
2023/10/01 11:43:23;;;;;;;16.13;6.22;;;;;;;19.32;66.57;102241.09;5026709;28;20051;-55
2023/10/01 11:46:18;;;;;;;17.85;7.03;;;;;;;19.32;66.57;102230.28;5026725;28;20087;-54
2023/10/01 11:48:56;;;;;;;14.38;6.70;;;;;;;19.33;66.64;102232.03;5026651;28;20091;-55
2023/10/01 11:51:30;;;;;;;13.95;6.32;;;;;;;19.34;66.76;102229.22;5027946;28;20383;-55
2023/10/01 11:54:12;;;;;;;15.30;6.65;;;;;;;19.35;66.43;102227.38;5029296;28;20042;-55
2023/10/01 11:56:46;;;;;;;12.30;5.97;;;;;;;19.34;66.57;102229.22;5029541;28;20499;-55
2023/10/01 11:59:19;;;;;;;16.42;6.40;;;;;;;19.36;66.80;102229.06;5029068;28;20026;-55
2023/10/01 12:01:49;;;;;;;15.30;6.75;;;;;;;19.36;66.84;102218.25;5030613;28;20091;-55
2023/10/01 12:04:43;;;;;;;12.27;5.83;;;;;;;19.37;66.97;102206.50;5027592;28;20029;-55
2023/10/01 12:07:16;;;;;;;15.88;6.53;;;;;;;19.37;66.72;102203.78;5029083;28;20480;-55
2023/10/01 12:09:49;;;;;;;13.77;6.47;;;;;;;19.38;66.90;102202.81;5029505;28;20026;-55
2023/10/01 12:12:25;;;;;;;14.95;6.65;;;;;;;19.39;66.43;102207.22;5030355;28;20040;-55
2023/10/01 12:15:33;;;;;;;13.48;6.47;;;;;;;19.39;66.99;102196.44;5031616;28;20037;-55
2023/10/01 12:17:46;;;;;;;14.57;6.43;;;;;;;19.39;66.95;102201.81;5030427;28;20128;-55
2023/10/01 12:20:22;;;;;;;14.68;6.80;;;;;;;19.41;66.51;102199.88;5032210;28;20056;-55
2023/10/01 12:28:25;;;;;;;13.02;6.38;;;;;;;19.43;67.06;102210.56;5031298;28;20522;-55
2023/10/01 12:30:57;;;;;;;19.75;7.28;;;;;;;19.43;66.75;102206.00;5034309;28;20040;-55
2023/10/01 12:33:38;;;;;;;13.95;6.45;;;;;;;19.43;67.05;102187.09;5034255;28;20364;-55
2023/10/01 12:36:52;;;;;;;14.88;6.80;;;;;;;19.45;66.61;102184.28;5032665;28;20436;-55
2023/10/01 12:39:16;;;;;;;14.05;7.35;;;;;;;19.45;66.92;102178.88;5024415;28;20049;-55
2023/10/01 12:41:56;;;;;;;13.20;6.75;;;;;;;19.47;67.02;102190.41;5032550;28;20356;-55
2023/10/01 12:44:30;;;;;;;12.30;6.88;;;;;;;19.48;66.75;102181.34;5031816;28;20037;-55
2023/10/01 12:47:00;;;;;;;14.88;6.82;;;;;;;19.48;66.50;102179.47;5033899;28;20037;-55
2023/10/01 12:49:33;;;;;;;17.67;7.47;;;;;;;19.48;66.89;102182.19;5034018;28;20064;-55